createdAt,value
2018-12-30T00:01:34.145Z,7.63
2018-12-30T00:04:14.853Z,10.63
2018-12-30T00:06:56.364Z,12.10
2018-12-30T00:09:37.034Z,6.37
2018-12-30T00:12:18.319Z,8.73
2018-12-30T00:14:59.274Z,9.60
2018-12-30T00:17:40.772Z,6.63
2018-12-30T00:20:22.243Z,6.93
2018-12-30T00:23:02.885Z,8.43
2018-12-30T00:25:44.225Z,7.20
2018-12-30T00:28:13.799Z,10.93
2018-12-30T00:31:02.143Z,10.97
2018-12-30T00:33:32.173Z,8.57
2018-12-30T00:36:20.612Z,6.37
2018-12-30T00:39:02.136Z,8.70
2018-12-30T00:41:43.291Z,12.77
2018-12-30T00:44:24.585Z,6.10
2018-12-30T00:47:05.184Z,8.27
2018-12-30T00:49:45.964Z,9.33
2018-12-30T00:52:27.027Z,12.07
2018-12-30T00:55:07.811Z,4.90
2018-12-30T00:57:48.527Z,9.17
2018-12-30T01:00:28.007Z,11.13
2018-12-30T01:03:16.425Z,8.63
2018-12-30T01:05:57.325Z,5.30
2018-12-30T01:08:38.183Z,6.10
2018-12-30T01:11:19.950Z,12.90
2018-12-30T01:14:01.340Z,7.13
2018-12-30T01:16:42.734Z,17.90
2018-12-30T01:22:03.091Z,9.83
2018-12-30T01:24:42.668Z,11.47
2018-12-30T01:27:23.436Z,8.67
2018-12-30T01:30:04.885Z,4.77
2018-12-30T01:32:46.413Z,7.70
2018-12-30T01:35:27.441Z,7.70
2018-12-30T01:38:08.297Z,7.23
2018-12-30T01:40:49.818Z,8.40
2018-12-30T01:43:31.403Z,5.37
2018-12-30T01:46:10.873Z,11.87
2018-12-30T01:48:51.864Z,9.80
2018-12-30T01:51:33.284Z,9.67
2018-12-30T01:54:14.013Z,10.77
2018-12-30T01:56:55.361Z,10.63
2018-12-30T01:59:36.822Z,6.13
2018-12-30T02:02:16.378Z,9.67
2018-12-30T02:04:57.135Z,7.53
2018-12-30T02:07:37.803Z,10.03
2018-12-30T02:10:19.271Z,8.53
2018-12-30T02:13:00.630Z,5.60
2018-12-30T02:15:42.010Z,10.77
2018-12-30T02:18:23.395Z,5.13
2018-12-30T02:21:04.935Z,16.13
2018-12-30T02:23:45.650Z,4.77
2018-12-30T02:26:26.648Z,7.20
2018-12-30T02:29:07.358Z,4.00
2018-12-30T02:31:48.846Z,10.30
2018-12-30T02:34:29.524Z,10.57
2018-12-30T02:37:10.371Z,5.67
2018-12-30T02:39:51.809Z,6.17
2018-12-30T02:42:32.713Z,8.83
2018-12-30T02:45:14.042Z,10.23
2018-12-30T02:47:54.806Z,7.80
2018-12-30T02:50:36.126Z,10.47
2018-12-30T02:53:16.711Z,5.67
2018-12-30T02:55:57.274Z,12.20
2018-12-30T02:58:38.604Z,6.80
2018-12-30T03:01:19.766Z,7.17
2018-12-30T03:04:01.241Z,10.83
2018-12-30T03:06:42.617Z,5.40
2018-12-30T03:09:23.290Z,6.33
2018-12-30T03:12:04.863Z,4.90
2018-12-30T03:14:46.183Z,7.43
2018-12-30T03:17:26.718Z,2.93
2018-12-30T03:20:07.931Z,6.93
2018-12-30T03:22:49.190Z,5.80
2018-12-30T03:25:29.878Z,9.37
2018-12-30T03:28:11.058Z,6.80
2018-12-30T03:30:52.043Z,4.33
2018-12-30T03:33:33.173Z,9.50
2018-12-30T03:36:14.634Z,10.87
2018-12-30T03:38:59.152Z,7.93
2018-12-30T03:41:40.474Z,5.40
2018-12-30T03:44:21.859Z,8.43
2018-12-30T03:47:02.672Z,5.10
2018-12-30T03:49:44.663Z,6.07
2018-12-30T03:52:25.681Z,6.83
2018-12-30T03:55:07.110Z,7.53
2018-12-30T03:57:47.898Z,3.53
2018-12-30T04:00:29.059Z,7.37
2018-12-30T04:03:09.801Z,9.43
2018-12-30T04:05:50.378Z,6.87
2018-12-30T04:08:31.831Z,9.87
2018-12-30T04:11:12.612Z,8.50
2018-12-30T04:16:35.888Z,4.27
2018-12-30T04:19:17.121Z,6.57
2018-12-30T04:21:58.733Z,6.90
2018-12-30T04:24:40.070Z,12.40
2018-12-30T04:27:23.730Z,7.77
2018-12-30T04:30:04.711Z,12.60
2018-12-30T04:32:46.052Z,5.20
2018-12-30T04:35:26.568Z,7.17
2018-12-30T04:38:07.211Z,3.97
2018-12-30T04:40:47.692Z,6.87
2018-12-30T04:43:28.800Z,10.00
2018-12-30T04:48:52.388Z,6.13
2018-12-30T04:51:21.677Z,8.83
2018-12-30T04:54:10.095Z,7.60
2018-12-30T04:56:58.419Z,9.97
2018-12-30T04:59:39.680Z,4.37
2018-12-30T05:02:20.917Z,9.00
2018-12-30T05:05:01.607Z,7.33
2018-12-30T05:10:25.407Z,5.63
2018-12-30T05:15:48.717Z,12.10
2018-12-30T05:21:12.287Z,4.73
2018-12-30T05:26:35.150Z,7.30
2018-12-30T05:29:15.969Z,13.90
2018-12-30T05:31:56.791Z,8.30
2018-12-30T05:34:37.701Z,6.50
2018-12-30T05:40:17.354Z,4.40
2018-12-30T05:42:58.090Z,8.63
2018-12-30T05:45:38.651Z,4.90
2018-12-30T05:48:18.163Z,7.70
2018-12-30T05:50:59.382Z,4.20
2018-12-30T05:53:40.606Z,5.87
2018-12-30T05:56:10.066Z,9.77
2018-12-30T05:58:39.462Z,5.60
2018-12-30T06:01:09.047Z,6.90
2018-12-30T06:03:57.410Z,5.23
2018-12-30T06:06:26.832Z,9.50
2018-12-30T06:09:15.226Z,10.77
2018-12-30T06:18:07.496Z,7.13
2018-12-30T06:20:48.719Z,7.30
2018-12-30T06:23:30.072Z,3.80
2018-12-30T06:26:11.429Z,4.83
2018-12-30T06:28:52.361Z,6.07
2018-12-30T06:34:45.895Z,3.37
2018-12-30T06:37:26.479Z,4.57
2018-12-30T06:40:11.291Z,12.37
2018-12-30T06:42:49.423Z,7.63
2018-12-30T06:45:30.933Z,4.47
2018-12-30T06:48:11.903Z,5.43
2018-12-30T06:50:52.649Z,9.33
2018-12-30T06:53:33.337Z,8.07
2018-12-30T06:56:15.649Z,13.97
2018-12-30T07:01:38.233Z,16.90
2018-12-30T07:07:01.439Z,25.73
2018-12-30T07:09:42.578Z,9.87
2018-12-30T07:15:21.889Z,18.93
2018-12-30T07:18:02.690Z,18.10
2018-12-30T07:20:44.071Z,11.80
2018-12-30T07:23:24.762Z,8.37
2018-12-30T07:26:06.072Z,5.87
2018-12-30T07:28:47.093Z,8.00
2018-12-30T07:31:28.790Z,6.80
2018-12-30T07:34:09.678Z,9.63
2018-12-30T07:36:50.432Z,9.67
2018-12-30T07:39:31.826Z,5.27
2018-12-30T07:42:12.938Z,3.80
2018-12-30T07:44:53.585Z,5.73
2018-12-30T07:47:34.208Z,5.30
2018-12-30T07:50:14.714Z,12.90
2018-12-30T07:52:55.418Z,6.33
2018-12-30T07:55:36.787Z,9.87
2018-12-30T07:58:17.558Z,8.50
2018-12-30T08:03:40.936Z,7.00
2018-12-30T08:06:22.208Z,9.43
2018-12-30T08:09:03.054Z,9.53
2018-12-30T08:11:44.338Z,6.03
2018-12-30T08:14:25.794Z,7.33
2018-12-30T08:17:07.381Z,4.60
2018-12-30T08:19:48.816Z,10.37
2018-12-30T08:22:28.388Z,4.43
2018-12-30T08:25:09.406Z,12.30
2018-12-30T08:27:50.827Z,6.43
2018-12-30T08:30:32.454Z,8.37
2018-12-30T08:33:13.822Z,5.63
2018-12-30T08:35:55.330Z,5.77
2018-12-30T08:41:18.904Z,5.07
2018-12-30T08:44:00.225Z,5.50
2018-12-30T08:46:41.452Z,8.30
2018-12-30T08:49:22.047Z,7.33
2018-12-30T08:52:03.469Z,10.30
2018-12-30T08:54:44.964Z,8.17
2018-12-30T09:00:08.240Z,10.83
2018-12-30T09:02:49.624Z,4.47
2018-12-30T09:05:31.087Z,5.43
2018-12-30T09:08:11.762Z,8.83
2018-12-30T09:16:49.504Z,8.20
2018-12-30T09:22:28.774Z,11.30
2018-12-30T09:25:09.571Z,10.67
2018-12-30T09:27:51.197Z,10.43
2018-12-30T09:30:32.377Z,11.73
2018-12-30T09:33:13.738Z,10.97
2018-12-30T09:35:54.508Z,7.67
2018-12-30T09:38:35.198Z,6.70
2018-12-30T09:41:16.411Z,12.70
2018-12-30T09:43:58.806Z,10.37
2018-12-30T09:46:40.127Z,8.30
2018-12-30T09:49:21.571Z,8.23
2018-12-30T09:52:03.145Z,12.27
2018-12-30T09:54:44.526Z,12.13
2018-12-30T09:57:25.806Z,7.93
2018-12-30T10:00:06.548Z,8.10
2018-12-30T10:02:47.993Z,8.43
2018-12-30T10:05:28.664Z,8.83
2018-12-30T10:10:51.170Z,14.87
2018-12-30T10:13:32.804Z,9.77
2018-12-30T10:16:14.045Z,10.33
2018-12-30T10:18:55.547Z,14.73
2018-12-30T10:21:36.130Z,12.57
2018-12-30T10:26:59.586Z,18.17
2018-12-30T10:29:41.075Z,12.33
2018-12-30T10:32:22.416Z,9.50
2018-12-30T10:37:33.654Z,17.53
2018-12-30T10:40:03.151Z,12.37
2018-12-30T10:42:51.606Z,16.93
2018-12-30T10:45:40.037Z,14.40
2018-12-30T10:48:28.502Z,12.27
2018-12-30T10:51:09.412Z,9.33
2018-12-30T10:53:50.871Z,10.77
2018-12-30T10:56:31.655Z,16.33
2018-12-30T10:59:12.425Z,11.73
2018-12-30T11:01:53.263Z,15.13
2018-12-30T11:04:34.664Z,11.53
2018-12-30T11:07:16.225Z,11.63
2018-12-30T11:09:57.765Z,14.70
2018-12-30T11:12:38.927Z,8.83
2018-12-30T11:15:19.693Z,16.97
2018-12-30T11:18:01.574Z,21.37
2018-12-30T11:20:42.907Z,17.70
2018-12-30T11:23:24.633Z,12.40
2018-12-30T11:26:06.185Z,11.83
2018-12-30T11:28:47.192Z,12.23
2018-12-30T11:31:28.727Z,19.07
2018-12-30T11:34:10.285Z,16.60
2018-12-30T11:36:51.118Z,20.07
2018-12-30T11:39:32.610Z,15.57
2018-12-30T11:42:14.273Z,15.87
2018-12-30T11:44:55.768Z,13.80
2018-12-30T11:47:36.660Z,14.47
2018-12-30T11:50:18.128Z,13.07
2018-12-30T11:52:58.779Z,12.07
2018-12-30T11:55:39.865Z,11.17
2018-12-30T11:58:20.637Z,18.30
2018-12-30T12:01:02.165Z,33.50
2018-12-30T12:06:45.239Z,16.83
2018-12-30T12:12:08.886Z,14.77
2018-12-30T12:14:50.182Z,15.77
2018-12-30T12:17:31.791Z,20.17
2018-12-30T12:22:55.031Z,14.60
2018-12-30T12:25:36.392Z,17.63
2018-12-30T12:28:17.783Z,16.27
2018-12-30T12:30:58.413Z,16.33
2018-12-30T12:33:39.239Z,14.50
2018-12-30T12:36:20.656Z,15.83
2018-12-30T12:39:01.517Z,14.83
2018-12-30T12:41:43.158Z,18.57
2018-12-30T12:44:24.565Z,17.80
2018-12-30T12:52:44.228Z,13.43
2018-12-30T13:00:54.996Z,15.00
2018-12-30T13:03:36.440Z,21.27
2018-12-30T13:06:17.910Z,15.37
2018-12-30T13:08:59.509Z,20.53
2018-12-30T13:11:40.838Z,17.40
2018-12-30T13:14:22.199Z,16.27
2018-12-30T13:17:03.758Z,14.23
2018-12-30T13:19:44.835Z,17.40
2018-12-30T13:25:07.836Z,15.13
2018-12-30T13:30:39.284Z,13.87
2018-12-30T13:33:20.842Z,12.77
2018-12-30T13:38:55.170Z,14.87
2018-12-30T13:50:01.461Z,16.37
2018-12-30T13:56:00.724Z,18.87
2018-12-30T13:58:43.151Z,19.07
2018-12-30T14:01:24.396Z,15.60
2018-12-30T14:04:18.284Z,16.80
2018-12-30T14:07:02.524Z,21.17
2018-12-30T14:09:43.973Z,20.87
2018-12-30T14:12:25.361Z,19.63
2018-12-30T14:15:06.991Z,19.00
2018-12-30T14:20:36.303Z,21.17
2018-12-30T14:25:59.048Z,19.67
2018-12-30T14:28:47.594Z,20.53
2018-12-30T14:31:17.333Z,21.33
2018-12-30T14:34:06.062Z,21.60
2018-12-30T14:36:47.232Z,22.63
2018-12-30T14:42:10.415Z,26.03
2018-12-30T14:44:49.923Z,24.83
2018-12-30T14:47:30.663Z,25.97
2018-12-30T14:50:12.541Z,24.23
2018-12-30T14:52:56.890Z,27.37
2018-12-30T14:55:38.322Z,20.03
2018-12-30T14:58:19.720Z,22.97
2018-12-30T15:01:01.972Z,23.83
2018-12-30T15:03:43.327Z,24.50
2018-12-30T15:06:24.879Z,29.67
2018-12-30T15:09:06.401Z,28.70
2018-12-30T15:11:47.907Z,26.90
2018-12-30T15:14:29.307Z,25.27
2018-12-30T15:17:10.803Z,31.90
2018-12-30T15:19:51.932Z,29.27
2018-12-30T15:22:33.389Z,27.60
2018-12-30T15:25:14.044Z,28.43
2018-12-30T15:27:55.011Z,31.17
2018-12-30T15:30:35.850Z,25.10
2018-12-30T15:33:17.367Z,30.63
2018-12-30T15:38:40.621Z,30.53
2018-12-30T15:46:49.260Z,30.70
2018-12-30T15:49:30.690Z,31.37
2018-12-30T15:52:12.259Z,39.40
2018-12-30T15:54:41.927Z,31.00
2018-12-30T15:57:11.492Z,41.07
2018-12-30T15:59:59.981Z,42.60
2018-12-30T16:02:48.437Z,37.93
2018-12-30T16:05:29.759Z,42.17
2018-12-30T16:08:10.527Z,38.67
2018-12-30T16:10:50.215Z,41.60
2018-12-30T16:13:38.653Z,40.33
2018-12-30T16:16:20.027Z,40.10
2018-12-30T16:21:45.152Z,36.73
2018-12-30T16:24:26.441Z,38.27
2018-12-30T16:27:07.465Z,40.27
2018-12-30T16:29:48.809Z,42.50
2018-12-30T16:32:32.761Z,42.07
2018-12-30T16:35:13.921Z,45.00
2018-12-30T16:37:53.639Z,39.87
2018-12-30T16:40:42.046Z,42.80
2018-12-30T16:43:30.545Z,41.73
2018-12-30T16:46:12.110Z,42.90
2018-12-30T16:48:53.214Z,40.93
2018-12-30T16:51:34.786Z,43.73
2018-12-30T16:54:15.595Z,41.60
2018-12-30T16:56:56.246Z,45.13
2018-12-30T16:59:36.947Z,44.87
2018-12-30T17:02:17.859Z,43.43
2018-12-30T17:04:59.228Z,48.50
2018-12-30T17:07:29.030Z,48.63
2018-12-30T17:10:17.962Z,49.33
2018-12-30T17:13:07.776Z,49.97
2018-12-30T17:15:49.482Z,49.60
2018-12-30T17:18:30.798Z,45.80
2018-12-30T17:21:12.545Z,49.53
2018-12-30T17:23:53.297Z,47.20
2018-12-30T17:26:35.554Z,48.43
2018-12-30T17:29:17.118Z,49.83
2018-12-30T17:31:58.573Z,42.40
2018-12-30T17:34:39.883Z,45.33
2018-12-30T17:37:21.376Z,43.43
2018-12-30T17:40:02.025Z,51.07
2018-12-30T17:42:43.698Z,46.50
2018-12-30T17:45:25.261Z,44.53
2018-12-30T17:48:06.299Z,42.53
2018-12-30T17:50:47.801Z,40.93
2018-12-30T17:53:28.535Z,42.63
2018-12-30T17:56:09.183Z,47.50
2018-12-30T17:58:48.755Z,40.17
2018-12-30T18:01:37.706Z,42.93
2018-12-30T18:04:18.447Z,42.57
2018-12-30T18:06:59.868Z,43.53
2018-12-30T18:09:41.315Z,41.50
2018-12-30T18:12:22.924Z,40.40
2018-12-30T18:15:04.363Z,37.90
2018-12-30T18:17:44.973Z,36.37
2018-12-30T18:20:25.769Z,33.50
2018-12-30T18:23:06.555Z,34.30
2018-12-30T18:25:48.436Z,37.37
2018-12-30T18:28:29.997Z,35.67
2018-12-30T18:30:59.536Z,35.03
2018-12-30T18:33:48.036Z,43.43
2018-12-30T18:36:36.616Z,38.53
2018-12-30T18:39:18.003Z,36.10
2018-12-30T18:41:59.594Z,33.43
2018-12-30T18:44:39.279Z,36.13
2018-12-30T18:47:20.846Z,36.83
2018-12-30T18:50:01.731Z,32.70
2018-12-30T18:55:25.407Z,31.83
2018-12-30T18:58:07.344Z,36.27
2018-12-30T19:00:48.323Z,36.67
2018-12-30T19:06:11.941Z,30.07
2018-12-30T19:08:53.401Z,31.10
2018-12-30T19:11:34.909Z,36.23
2018-12-30T19:14:17.157Z,33.10
2018-12-30T19:16:58.027Z,29.53
2018-12-30T19:19:39.229Z,31.07
2018-12-30T19:22:18.911Z,31.33
2018-12-30T19:25:07.491Z,30.47
2018-12-30T19:27:49.154Z,29.67
2018-12-30T19:30:30.107Z,30.03
2018-12-30T19:33:11.399Z,27.53
2018-12-30T19:35:52.971Z,32.43
2018-12-30T19:38:34.281Z,30.17
2018-12-30T19:41:15.510Z,29.63
2018-12-30T19:43:56.993Z,26.37
2018-12-30T19:46:38.516Z,28.37
2018-12-30T19:49:19.316Z,29.57
2018-12-30T19:52:00.038Z,30.93
2018-12-30T19:54:39.924Z,26.67
2018-12-30T19:57:28.568Z,25.47
2018-12-30T20:00:10.234Z,23.70
2018-12-30T20:02:50.012Z,26.33
2018-12-30T20:05:34.084Z,28.33
2018-12-30T20:08:17.311Z,22.83
2018-12-30T20:10:58.040Z,29.53
2018-12-30T20:16:37.860Z,25.87
2018-12-30T20:19:19.515Z,24.80
2018-12-30T20:22:01.098Z,27.10
2018-12-30T20:24:42.518Z,31.93
2018-12-30T20:27:23.290Z,23.63
2018-12-30T20:30:04.830Z,30.10
2018-12-30T20:32:46.129Z,27.30
2018-12-30T20:35:27.920Z,27.03
2018-12-30T20:38:09.411Z,26.37
2018-12-30T20:40:50.760Z,26.00
2018-12-30T20:46:18.136Z,31.80
2018-12-30T20:51:32.940Z,28.83
2018-12-30T20:54:21.485Z,30.37
2018-12-30T20:57:02.624Z,34.70
2018-12-30T20:59:44.093Z,35.40
2018-12-30T21:02:25.253Z,38.30
2018-12-30T21:05:06.838Z,40.90
2018-12-30T21:07:48.456Z,34.00
2018-12-30T21:10:29.758Z,36.80
2018-12-30T21:13:11.427Z,42.50
2018-12-30T21:15:52.656Z,42.93
2018-12-30T21:18:34.167Z,37.93
2018-12-30T21:21:15.651Z,45.23
2018-12-30T21:23:57.116Z,44.73
2018-12-30T21:26:45.232Z,43.53
2018-12-30T21:29:21.443Z,42.57
2018-12-30T21:32:02.386Z,43.00
2018-12-30T21:34:44.942Z,38.10
2018-12-30T21:37:25.955Z,44.97
2018-12-30T21:40:06.737Z,47.10
2018-12-30T21:42:48.563Z,45.07
2018-12-30T21:45:29.771Z,38.33
2018-12-30T21:48:10.516Z,40.17
2018-12-30T21:50:51.508Z,49.87
2018-12-30T21:53:33.404Z,53.53
2018-12-30T21:56:03.045Z,41.27
2018-12-30T21:58:51.594Z,48.23
2018-12-30T22:01:32.957Z,43.97
2018-12-30T22:04:13.803Z,54.33
2018-12-30T22:06:54.991Z,55.20
2018-12-30T22:09:36.365Z,58.87
2018-12-30T22:12:17.902Z,57.43
2018-12-30T22:14:59.415Z,55.53
2018-12-30T22:17:42.023Z,49.07
2018-12-30T22:20:23.249Z,61.67
2018-12-30T22:23:04.634Z,60.37
2018-12-30T22:25:45.605Z,54.27
2018-12-30T22:28:27.143Z,49.37
2018-12-30T22:31:07.850Z,52.63
2018-12-30T22:33:49.255Z,49.13
2018-12-30T22:36:30.020Z,47.97
2018-12-30T22:39:11.584Z,56.67
2018-12-30T22:41:53.202Z,49.37
2018-12-30T22:44:34.598Z,45.60
2018-12-30T22:47:16.219Z,43.60
2018-12-30T22:49:57.743Z,48.13
2018-12-30T22:52:38.474Z,47.33
2018-12-30T22:55:19.711Z,43.07
2018-12-30T22:58:00.855Z,46.40
2018-12-30T23:01:00.891Z,46.27
2018-12-30T23:03:42.005Z,42.47
2018-12-30T23:06:23.529Z,39.60
2018-12-30T23:09:05.393Z,40.43
2018-12-30T23:11:46.754Z,44.30
2018-12-30T23:14:27.624Z,37.43
2018-12-30T23:17:07.202Z,39.03
2018-12-30T23:19:47.776Z,36.77
2018-12-30T23:22:28.526Z,36.57
2018-12-30T23:25:09.299Z,37.20
2018-12-30T23:27:49.991Z,35.63
2018-12-30T23:30:30.505Z,38.70
2018-12-30T23:33:11.255Z,42.17
2018-12-30T23:35:52.049Z,42.17
2018-12-30T23:38:33.524Z,34.97
2018-12-30T23:41:14.168Z,34.77
2018-12-30T23:43:55.395Z,39.43
2018-12-30T23:46:35.975Z,35.43
2018-12-30T23:49:16.784Z,39.23
2018-12-30T23:51:57.530Z,38.33
2018-12-30T23:54:38.438Z,38.67
2018-12-30T23:57:19.109Z,35.90
